sensor_id;sensor_type;location;lat;lon;timestamp;pressure;altitude;pressure_sealevel;temperature;humidity
44751;BME280;30477;48.224;11.470;2023-04-01T00:01:27;94831.63;;;8.00;64.59
44751;BME280;30477;48.224;11.470;2023-04-01T00:03:52;94827.41;;;7.99;64.75
44751;BME280;30477;48.224;11.470;2023-04-01T00:06:19;94836.06;;;7.90;64.96
44751;BME280;30477;48.224;11.470;2023-04-01T00:08:44;94822.34;;;7.89;65.08
44751;BME280;30477;48.224;11.470;2023-04-01T00:11:10;94808.03;;;7.87;64.83
44751;BME280;30477;48.224;11.470;2023-04-01T00:13:35;94809.47;;;7.89;65.11
44751;BME280;30477;48.224;11.470;2023-04-01T00:16:02;94820.75;;;7.88;65.09
44751;BME280;30477;48.224;11.470;2023-04-01T00:18:28;94817.72;;;7.93;64.94
44751;BME280;30477;48.224;11.470;2023-04-01T00:20:53;94809.66;;;7.88;64.83
44751;BME280;30477;48.224;11.470;2023-04-01T00:23:20;94808.34;;;7.84;64.82
44751;BME280;30477;48.224;11.470;2023-04-01T00:25:46;94809.63;;;7.80;65.01
44751;BME280;30477;48.224;11.470;2023-04-01T00:28:14;94799.97;;;7.82;65.42
44751;BME280;30477;48.224;11.470;2023-04-01T00:30:39;94803.50;;;7.81;65.26
44751;BME280;30477;48.224;11.470;2023-04-01T00:33:05;94803.81;;;7.78;65.17
44751;BME280;30477;48.224;11.470;2023-04-01T00:35:30;94806.53;;;7.76;65.57
44751;BME280;30477;48.224;11.470;2023-04-01T00:37:57;94808.97;;;7.78;65.47
44751;BME280;30477;48.224;11.470;2023-04-01T00:40:32;94808.97;;;7.78;65.60
44751;BME280;30477;48.224;11.470;2023-04-01T00:42:58;94814.41;;;7.75;65.70
44751;BME280;30477;48.224;11.470;2023-04-01T00:48:00;94818.28;;;7.79;65.71
44751;BME280;30477;48.224;11.470;2023-04-01T00:50:27;94812.47;;;7.77;65.57
44751;BME280;30477;48.224;11.470;2023-04-01T00:52:53;94802.50;;;7.73;65.71
44751;BME280;30477;48.224;11.470;2023-04-01T00:55:19;94802.78;;;7.70;66.03
44751;BME280;30477;48.224;11.470;2023-04-01T00:57:48;94805.72;;;7.76;65.90
44751;BME280;30477;48.224;11.470;2023-04-01T01:00:15;94805.06;;;7.73;65.86
44751;BME280;30477;48.224;11.470;2023-04-01T01:02:41;94800.56;;;7.76;65.86
44751;BME280;30477;48.224;11.470;2023-04-01T01:05:10;94797.34;;;7.73;65.70
44751;BME280;30477;48.224;11.470;2023-04-01T01:10:26;94800.88;;;7.72;66.01
44751;BME280;30477;48.224;11.470;2023-04-01T01:13:04;94802.50;;;7.73;65.70
44751;BME280;30477;48.224;11.470;2023-04-01T01:15:44;94812.16;;;7.71;65.79
44751;BME280;30477;48.224;11.470;2023-04-01T01:24:16;94792.38;;;7.80;65.93
44751;BME280;30477;48.224;11.470;2023-04-01T01:26:49;94796.88;;;7.78;66.03
44751;BME280;30477;48.224;11.470;2023-04-01T01:34:40;94793.78;;;7.75;66.40
44751;BME280;30477;48.224;11.470;2023-04-01T01:37:11;94786.69;;;7.68;66.27
44751;BME280;30477;48.224;11.470;2023-04-01T01:39:39;94783.72;;;7.55;66.70
44751;BME280;30477;48.224;11.470;2023-04-01T01:42:09;94796.13;;;7.60;66.78
44751;BME280;30477;48.224;11.470;2023-04-01T01:44:37;94784.09;;;7.60;66.61
44751;BME280;30477;48.224;11.470;2023-04-01T01:47:03;94780.88;;;7.58;66.53
44751;BME280;30477;48.224;11.470;2023-04-01T01:49:32;94785.84;;;7.60;66.32
44751;BME280;30477;48.224;11.470;2023-04-01T01:51:59;94795.66;;;7.56;66.55
44751;BME280;30477;48.224;11.470;2023-04-01T01:54:25;94785.84;;;7.60;66.57
44751;BME280;30477;48.224;11.470;2023-04-01T01:56:53;94798.56;;;7.61;66.58
44751;BME280;30477;48.224;11.470;2023-04-01T01:59:22;94797.78;;;7.61;66.39
44751;BME280;30477;48.224;11.470;2023-04-01T02:01:52;94799.84;;;7.57;66.25
44751;BME280;30477;48.224;11.470;2023-04-01T02:04:21;94796.13;;;7.60;66.43
44751;BME280;30477;48.224;11.470;2023-04-01T02:07:01;94788.59;;;7.58;66.44
44751;BME280;30477;48.224;11.470;2023-04-01T02:09:27;94796.47;;;7.57;66.27
44751;BME280;30477;48.224;11.470;2023-04-01T02:11:59;94796.31;;;7.58;66.26
44751;BME280;30477;48.224;11.470;2023-04-01T02:15:28;94804.56;;;7.70;66.19
44751;BME280;30477;48.224;11.470;2023-04-01T02:17:34;94789.91;;;7.62;65.78
44751;BME280;30477;48.224;11.470;2023-04-01T02:20:07;94794.72;;;7.65;66.01
44751;BME280;30477;48.224;11.470;2023-04-01T02:22:38;94800.34;;;7.61;65.80
44751;BME280;30477;48.224;11.470;2023-04-01T02:25:09;94780.88;;;7.66;65.74
44751;BME280;30477;48.224;11.470;2023-04-01T02:27:37;94801.66;;;7.65;65.58
44751;BME280;30477;48.224;11.470;2023-04-01T02:30:03;94801.47;;;7.66;65.52
44751;BME280;30477;48.224;11.470;2023-04-01T02:32:30;94793.41;;;7.61;65.77
44751;BME280;30477;48.224;11.470;2023-04-01T02:34:58;94802.31;;;7.67;65.70
44751;BME280;30477;48.224;11.470;2023-04-01T02:37:25;94808.88;;;7.61;65.37
44751;BME280;30477;48.224;11.470;2023-04-01T02:39:50;94812.72;;;7.57;65.72
44751;BME280;30477;48.224;11.470;2023-04-01T02:42:16;94804.84;;;7.59;65.57
44751;BME280;30477;48.224;11.470;2023-04-01T02:44:41;94811.75;;;7.58;65.56
44751;BME280;30477;48.224;11.470;2023-04-01T02:47:06;94816.94;;;7.66;65.51
44751;BME280;30477;48.224;11.470;2023-04-01T02:49:31;94813.41;;;7.67;65.49
44751;BME280;30477;48.224;11.470;2023-04-01T02:51:57;94814.06;;;7.69;65.36
44751;BME280;30477;48.224;11.470;2023-04-01T02:54:22;94821.13;;;7.67;65.30
44751;BME280;30477;48.224;11.470;2023-04-01T02:56:47;94822.09;;;7.66;65.34
44751;BME280;30477;48.224;11.470;2023-04-01T02:59:13;94821.47;;;7.64;65.39
44751;BME280;30477;48.224;11.470;2023-04-01T03:01:38;94828.88;;;7.67;65.56
44751;BME280;30477;48.224;11.470;2023-04-01T03:04:04;94820.69;;;7.72;65.53
44751;BME280;30477;48.224;11.470;2023-04-01T03:06:29;94829.00;;;7.66;65.30
44751;BME280;30477;48.224;11.470;2023-04-01T03:08:55;94825.63;;;7.65;65.47
44751;BME280;30477;48.224;11.470;2023-04-01T03:11:20;94823.06;;;7.65;65.61
44751;BME280;30477;48.224;11.470;2023-04-01T03:13:46;94820.34;;;7.67;65.39
44751;BME280;30477;48.224;11.470;2023-04-01T03:16:12;94808.88;;;7.61;65.30
44751;BME280;30477;48.224;11.470;2023-04-01T03:18:37;94821.75;;;7.61;65.30
44751;BME280;30477;48.224;11.470;2023-04-01T03:21:20;94810.00;;;7.59;65.52
44751;BME280;30477;48.224;11.470;2023-04-01T03:23:46;94826.56;;;7.56;65.37
44751;BME280;30477;48.224;11.470;2023-04-01T03:26:12;94821.41;;;7.56;65.26
44751;BME280;30477;48.224;11.470;2023-04-01T03:28:37;94834.41;;;7.55;65.42
44751;BME280;30477;48.224;11.470;2023-04-01T03:31:02;94832.00;;;7.53;65.22
44751;BME280;30477;48.224;11.470;2023-04-01T03:33:28;94836.75;;;7.40;65.25
44751;BME280;30477;48.224;11.470;2023-04-01T03:35:53;94837.63;;;7.30;65.41
44751;BME280;30477;48.224;11.470;2023-04-01T03:38:18;94846.31;;;7.29;65.71
44751;BME280;30477;48.224;11.470;2023-04-01T03:40:44;94846.00;;;7.32;65.95
44751;BME280;30477;48.224;11.470;2023-04-01T03:43:09;94842.56;;;7.24;65.62
44751;BME280;30477;48.224;11.470;2023-04-01T03:45:36;94836.22;;;7.10;65.97
44751;BME280;30477;48.224;11.470;2023-04-01T03:48:01;94858.47;;;7.01;66.52
44751;BME280;30477;48.224;11.470;2023-04-01T03:50:27;94840.31;;;7.03;66.56
44751;BME280;30477;48.224;11.470;2023-04-01T03:52:52;94850.47;;;7.04;66.80
44751;BME280;30477;48.224;11.470;2023-04-01T03:55:17;94844.13;;;6.99;66.69
44751;BME280;30477;48.224;11.470;2023-04-01T03:57:43;94843.84;;;7.02;66.99
44751;BME280;30477;48.224;11.470;2023-04-01T04:00:09;94848.69;;;7.05;66.88
44751;BME280;30477;48.224;11.470;2023-04-01T04:02:34;94852.50;;;7.01;66.94
44751;BME280;30477;48.224;11.470;2023-04-01T04:05:00;94857.59;;;7.10;67.12
44751;BME280;30477;48.224;11.470;2023-04-01T04:07:26;94855.88;;;7.01;66.95
44751;BME280;30477;48.224;11.470;2023-04-01T04:09:51;94856.28;;;7.06;67.05
44751;BME280;30477;48.224;11.470;2023-04-01T04:12:16;94850.91;;;7.00;67.07
44751;BME280;30477;48.224;11.470;2023-04-01T04:14:42;94851.38;;;6.95;67.29
44751;BME280;30477;48.224;11.470;2023-04-01T04:17:10;94845.97;;;7.06;67.48
44751;BME280;30477;48.224;11.470;2023-04-01T04:19:38;94858.41;;;7.11;67.29
44751;BME280;30477;48.224;11.470;2023-04-01T04:22:04;94863.59;;;7.19;67.32
44751;BME280;30477;48.224;11.470;2023-04-01T04:24:29;94856.47;;;7.13;67.42
44751;BME280;30477;48.224;11.470;2023-04-01T04:26:54;94855.28;;;7.25;67.24
44751;BME280;30477;48.224;11.470;2023-04-01T04:29:20;94852.38;;;7.20;67.12
44751;BME280;30477;48.224;11.470;2023-04-01T04:31:45;94862.88;;;7.09;67.48
44751;BME280;30477;48.224;11.470;2023-04-01T04:34:11;94860.03;;;7.12;67.88
44751;BME280;30477;48.224;11.470;2023-04-01T04:36:36;94869.66;;;7.10;67.70
44751;BME280;30477;48.224;11.470;2023-04-01T04:39:01;94855.53;;;7.14;67.92
44751;BME280;30477;48.224;11.470;2023-04-01T04:41:28;94859.44;;;7.18;67.75
44751;BME280;30477;48.224;11.470;2023-04-01T04:43:55;94864.88;;;7.15;67.84
44751;BME280;30477;48.224;11.470;2023-04-01T04:46:21;94867.56;;;7.14;67.96
44751;BME280;30477;48.224;11.470;2023-04-01T04:48:46;94859.72;;;7.15;68.02
44751;BME280;30477;48.224;11.470;2023-04-01T04:51:17;94858.47;;;7.19;68.13
44751;BME280;30477;48.224;11.470;2023-04-01T04:53:43;94862.03;;;7.26;67.99
44751;BME280;30477;48.224;11.470;2023-04-01T04:56:08;94859.19;;;7.29;67.89
44751;BME280;30477;48.224;11.470;2023-04-01T04:58:33;94861.44;;;7.32;67.66
44751;BME280;30477;48.224;11.470;2023-04-01T05:00:59;94856.03;;;7.36;67.38
44751;BME280;30477;48.224;11.470;2023-04-01T05:03:29;94873.38;;;7.34;67.39
44751;BME280;30477;48.224;11.470;2023-04-01T05:05:55;94860.13;;;7.28;67.32
44751;BME280;30477;48.224;11.470;2023-04-01T05:08:20;94870.16;;;7.31;67.42
44751;BME280;30477;48.224;11.470;2023-04-01T05:10:46;94855.63;;;7.30;67.19
44751;BME280;30477;48.224;11.470;2023-04-01T05:13:11;94871.47;;;7.36;67.33
44751;BME280;30477;48.224;11.470;2023-04-01T05:15:36;94858.94;;;7.41;67.01
44751;BME280;30477;48.224;11.470;2023-04-01T05:18:02;94864.47;;;7.46;66.72
44751;BME280;30477;48.224;11.470;2023-04-01T05:20:28;94872.19;;;7.46;66.73
44751;BME280;30477;48.224;11.470;2023-04-01T05:22:57;94864.16;;;7.49;66.57
44751;BME280;30477;48.224;11.470;2023-04-01T05:25:22;94868.84;;;7.53;66.38
44751;BME280;30477;48.224;11.470;2023-04-01T05:27:48;94856.13;;;7.52;66.28
44751;BME280;30477;48.224;11.470;2023-04-01T05:30:13;94855.81;;;7.55;65.94
44751;BME280;30477;48.224;11.470;2023-04-01T05:32:38;94869.22;;;7.59;66.03
44751;BME280;30477;48.224;11.470;2023-04-01T05:35:05;94861.16;;;7.62;65.67
44751;BME280;30477;48.224;11.470;2023-04-01T05:37:30;94870.06;;;7.67;65.67
44751;BME280;30477;48.224;11.470;2023-04-01T05:39:55;94866.03;;;7.65;65.57
44751;BME280;30477;48.224;11.470;2023-04-01T05:42:21;94869.09;;;7.68;65.51
44751;BME280;30477;48.224;11.470;2023-04-01T05:44:46;94861.06;;;7.71;65.39
44751;BME280;30477;48.224;11.470;2023-04-01T05:47:11;94861.13;;;7.80;65.05
44751;BME280;30477;48.224;11.470;2023-04-01T05:49:37;94861.38;;;7.95;65.04
44751;BME280;30477;48.224;11.470;2023-04-01T05:52:02;94855.47;;;8.02;64.74
44751;BME280;30477;48.224;11.470;2023-04-01T05:54:27;94860.31;;;8.13;64.36
44751;BME280;30477;48.224;11.470;2023-04-01T05:56:53;94853.88;;;8.09;63.89
44751;BME280;30477;48.224;11.470;2023-04-01T05:59:18;94857.72;;;8.05;63.88
44751;BME280;30477;48.224;11.470;2023-04-01T06:01:43;94860.94;;;8.07;63.55
44751;BME280;30477;48.224;11.470;2023-04-01T06:04:15;94861.75;;;8.08;63.61
44751;BME280;30477;48.224;11.470;2023-04-01T06:06:41;94862.28;;;8.20;63.38
44751;BME280;30477;48.224;11.470;2023-04-01T06:09:18;94862.63;;;8.25;62.99
44751;BME280;30477;48.224;11.470;2023-04-01T06:11:56;94867.47;;;8.28;62.96
44751;BME280;30477;48.224;11.470;2023-04-01T06:20:22;94861.19;;;8.73;61.67
44751;BME280;30477;48.224;11.470;2023-04-01T06:28:39;94854.16;;;9.08;60.62
44751;BME280;30477;48.224;11.470;2023-04-01T06:39:45;94858.31;;;8.84;59.35
44751;BME280;30477;48.224;11.470;2023-04-01T06:45:25;94862.53;;;9.43;58.86
44751;BME280;30477;48.224;11.470;2023-04-01T06:47:57;94867.72;;;9.34;58.79
44751;BME280;30477;48.224;11.470;2023-04-01T06:56:17;94859.75;;;9.77;56.23
44751;BME280;30477;48.224;11.470;2023-04-01T06:58:53;94874.75;;;9.82;57.05
44751;BME280;30477;48.224;11.470;2023-04-01T07:01:26;94867.00;;;9.82;56.99
44751;BME280;30477;48.224;11.470;2023-04-01T07:03:59;94875.78;;;9.64;56.90
44751;BME280;30477;48.224;11.470;2023-04-01T07:06:38;94885.63;;;9.61;56.95
44751;BME280;30477;48.224;11.470;2023-04-01T07:09:10;94876.44;;;9.50;57.28
44751;BME280;30477;48.224;11.470;2023-04-01T07:11:38;94876.25;;;9.27;57.19
44751;BME280;30477;48.224;11.470;2023-04-01T07:14:13;94878.00;;;9.02;57.91
44751;BME280;30477;48.224;11.470;2023-04-01T07:16:49;94875.75;;;9.15;58.31
44751;BME280;30477;48.224;11.470;2023-04-01T07:19:29;94879.00;;;9.33;58.23
44751;BME280;30477;48.224;11.470;2023-04-01T07:22:05;94877.88;;;9.36;57.70
44751;BME280;30477;48.224;11.470;2023-04-01T07:24:37;94873.34;;;9.38;57.80
44751;BME280;30477;48.224;11.470;2023-04-01T07:27:08;94871.91;;;9.44;56.62
44751;BME280;30477;48.224;11.470;2023-04-01T07:29:34;94864.81;;;9.38;57.19
44751;BME280;30477;48.224;11.470;2023-04-01T07:42:57;94876.41;;;9.58;56.34
44751;BME280;30477;48.224;11.470;2023-04-01T07:45:34;94890.13;;;9.34;57.27
44751;BME280;30477;48.224;11.470;2023-04-01T07:50:46;94887.88;;;9.39;57.02
44751;BME280;30477;48.224;11.470;2023-04-01T07:56:25;94874.97;;;9.47;57.00
44751;BME280;30477;48.224;11.470;2023-04-01T08:01:57;94874.78;;;9.41;57.01
44751;BME280;30477;48.224;11.470;2023-04-01T08:12:17;94902.56;;;9.47;56.65
44751;BME280;30477;48.224;11.470;2023-04-01T08:17:58;94884.47;;;9.47;56.69
44751;BME280;30477;48.224;11.470;2023-04-01T08:21:14;94874.78;;;9.49;56.23
44751;BME280;30477;48.224;11.470;2023-04-01T08:23:26;94883.69;;;9.46;56.57
44751;BME280;30477;48.224;11.470;2023-04-01T08:28:45;94865.78;;;10.17;55.79
44751;BME280;30477;48.224;11.470;2023-04-01T08:31:33;94875.75;;;10.36;55.01
44751;BME280;30477;48.224;11.470;2023-04-01T08:34:03;94864.78;;;10.34;54.98
44751;BME280;30477;48.224;11.470;2023-04-01T08:36:43;94863.25;;;10.88;54.75
44751;BME280;30477;48.224;11.470;2023-04-01T08:40:10;94873.19;;;11.45;53.42
44751;BME280;30477;48.224;11.470;2023-04-01T08:53:15;94847.97;;;11.16;53.22
44751;BME280;30477;48.224;11.470;2023-04-01T08:55:56;94856.81;;;11.83;51.55
44751;BME280;30477;48.224;11.470;2023-04-01T09:04:14;94848.25;;;12.27;49.77
44751;BME280;30477;48.224;11.470;2023-04-01T09:07:07;94836.81;;;12.06;49.70
44751;BME280;30477;48.224;11.470;2023-04-01T09:09:48;94836.53;;;12.46;50.02
44751;BME280;30477;48.224;11.470;2023-04-01T09:15:20;94852.25;;;11.85;49.36
44751;BME280;30477;48.224;11.470;2023-04-01T09:18:13;94844.34;;;11.25;50.38
44751;BME280;30477;48.224;11.470;2023-04-01T09:26:35;94843.22;;;11.05;51.71
44751;BME280;30477;48.224;11.470;2023-04-01T09:32:04;94846.09;;;11.10;51.96
44751;BME280;30477;48.224;11.470;2023-04-01T09:35:06;94837.75;;;11.00;51.63
44751;BME280;30477;48.224;11.470;2023-04-01T09:37:52;94840.63;;;11.05;52.25
44751;BME280;30477;48.224;11.470;2023-04-01T09:40:22;94842.69;;;11.09;52.18
44751;BME280;30477;48.224;11.470;2023-04-01T09:56:50;94827.53;;;11.21;51.38
44751;BME280;30477;48.224;11.470;2023-04-01T09:59:49;94809.53;;;11.28;50.69
44751;BME280;30477;48.224;11.470;2023-04-01T10:46:20;94823.19;;;10.99;52.45
44751;BME280;30477;48.224;11.470;2023-04-01T11:00:00;94837.13;;;10.35;56.72
44751;BME280;30477;48.224;11.470;2023-04-01T11:05:31;94855.75;;;10.30;58.75
44751;BME280;30477;48.224;11.470;2023-04-01T11:27:53;94862.09;;;10.11;59.15
44751;BME280;30477;48.224;11.470;2023-04-01T11:33:04;94864.66;;;10.20;59.06
44751;BME280;30477;48.224;11.470;2023-04-01T11:38:34;94870.88;;;9.94;61.14
44751;BME280;30477;48.224;11.470;2023-04-01T11:43:42;94874.47;;;9.77;61.80
44751;BME280;30477;48.224;11.470;2023-04-01T11:46:19;94875.94;;;9.54;63.10
44751;BME280;30477;48.224;11.470;2023-04-01T11:48:58;94880.78;;;9.41;62.91
44751;BME280;30477;48.224;11.470;2023-04-01T11:51:29;94882.09;;;9.45;63.37
44751;BME280;30477;48.224;11.470;2023-04-01T12:02:25;94881.56;;;9.17;64.72
44751;BME280;30477;48.224;11.470;2023-04-01T12:04:58;94887.06;;;9.14;64.67
44751;BME280;30477;48.224;11.470;2023-04-01T12:07:39;94887.88;;;9.23;64.70
44751;BME280;30477;48.224;11.470;2023-04-01T12:18:42;94888.34;;;9.02;64.38
44751;BME280;30477;48.224;11.470;2023-04-01T12:27:32;94890.59;;;9.13;64.52
44751;BME280;30477;48.224;11.470;2023-04-01T12:32:47;94884.34;;;9.16;64.27
44751;BME280;30477;48.224;11.470;2023-04-01T12:38:39;94891.56;;;8.96;64.27
44751;BME280;30477;48.224;11.470;2023-04-01T12:44:04;94887.06;;;9.06;64.50
44751;BME280;30477;48.224;11.470;2023-04-01T12:50:02;94891.41;;;9.05;64.14
44751;BME280;30477;48.224;11.470;2023-04-01T12:55:18;94887.06;;;9.06;64.15
44751;BME280;30477;48.224;11.470;2023-04-01T12:58:00;94896.59;;;9.05;64.25
44751;BME280;30477;48.224;11.470;2023-04-01T13:03:20;94888.03;;;8.97;64.27
44751;BME280;30477;48.224;11.470;2023-04-01T13:06:27;94897.38;;;8.98;63.78
44751;BME280;30477;48.224;11.470;2023-04-01T13:09:12;94897.38;;;8.98;64.22
44751;BME280;30477;48.224;11.470;2023-04-01T13:16:58;94911.25;;;9.05;64.71
44751;BME280;30477;48.224;11.470;2023-04-01T13:22:13;94897.84;;;8.93;65.33
44751;BME280;30477;48.224;11.470;2023-04-01T13:27:33;94898.78;;;8.84;65.45
44751;BME280;30477;48.224;11.470;2023-04-01T13:30:28;94908.00;;;8.86;65.23
44751;BME280;30477;48.224;11.470;2023-04-01T13:32:58;94910.91;;;8.91;65.33
44751;BME280;30477;48.224;11.470;2023-04-01T13:35:54;94908.97;;;8.93;65.50
44751;BME280;30477;48.224;11.470;2023-04-01T13:41:23;94905.09;;;8.98;65.95
44751;BME280;30477;48.224;11.470;2023-04-01T13:43:57;94883.31;;;8.92;66.19
44751;BME280;30477;48.224;11.470;2023-04-01T13:46:46;94909.31;;;8.90;65.81
44751;BME280;30477;48.224;11.470;2023-04-01T13:55:18;94900.09;;;8.96;65.22
44751;BME280;30477;48.224;11.470;2023-04-01T14:09:45;94908.03;;;9.19;65.26
44751;BME280;30477;48.224;11.470;2023-04-01T14:23:35;94903.88;;;9.26;65.22
44751;BME280;30477;48.224;11.470;2023-04-01T14:41:00;94917.72;;;9.25;65.17
44751;BME280;30477;48.224;11.470;2023-04-01T14:44:09;94912.91;;;9.30;65.02
44751;BME280;30477;48.224;11.470;2023-04-01T14:47:08;94913.72;;;9.39;64.83
44751;BME280;30477;48.224;11.470;2023-04-01T14:49:48;94922.09;;;9.41;65.03
44751;BME280;30477;48.224;11.470;2023-04-01T14:52:17;94911.94;;;9.40;64.86
44751;BME280;30477;48.224;11.470;2023-04-01T14:54:48;94915.16;;;9.42;64.88
44751;BME280;30477;48.224;11.470;2023-04-01T14:57:25;94897.88;;;9.42;65.08
44751;BME280;30477;48.224;11.470;2023-04-01T14:59:59;94913.06;;;9.37;65.37
44751;BME280;30477;48.224;11.470;2023-04-01T15:02:42;94912.25;;;9.37;65.33
44751;BME280;30477;48.224;11.470;2023-04-01T15:08:00;94919.19;;;9.36;65.64
44751;BME280;30477;48.224;11.470;2023-04-01T15:19:06;94925.97;;;9.29;66.26
44751;BME280;30477;48.224;11.470;2023-04-01T15:25:05;94914.50;;;9.40;66.16
44751;BME280;30477;48.224;11.470;2023-04-01T15:30:57;94930.66;;;9.33;65.12
44751;BME280;30477;48.224;11.470;2023-04-01T15:52:45;94949.38;;;9.44;63.16
44751;BME280;30477;48.224;11.470;2023-04-01T15:55:21;94951.97;;;9.44;62.88
44751;BME280;30477;48.224;11.470;2023-04-01T16:00:30;94945.16;;;9.43;62.50
44751;BME280;30477;48.224;11.470;2023-04-01T16:03:37;94952.63;;;9.46;62.26
44751;BME280;30477;48.224;11.470;2023-04-01T16:06:17;94946.81;;;9.44;61.50
44751;BME280;30477;48.224;11.470;2023-04-01T16:14:33;94944.53;;;9.49;60.84
44751;BME280;30477;48.224;11.470;2023-04-01T16:22:38;94946.47;;;9.47;60.17
44751;BME280;30477;48.224;11.470;2023-04-01T16:30:42;94950.00;;;9.29;60.63
44751;BME280;30477;48.224;11.470;2023-04-01T16:38:58;94942.41;;;9.28;60.34
44751;BME280;30477;48.224;11.470;2023-04-01T16:41:49;94953.56;;;9.28;60.68
44751;BME280;30477;48.224;11.470;2023-04-01T16:44:25;94951.94;;;9.35;60.54
44751;BME280;30477;48.224;11.470;2023-04-01T16:46:53;94958.25;;;9.33;60.36
44751;BME280;30477;48.224;11.470;2023-04-01T16:49:29;94955.03;;;9.31;60.39
44751;BME280;30477;48.224;11.470;2023-04-01T16:54:31;94958.91;;;9.35;60.19
44751;BME280;30477;48.224;11.470;2023-04-01T16:59:43;94960.69;;;9.34;59.79
44751;BME280;30477;48.224;11.470;2023-04-01T17:02:14;94965.19;;;9.32;59.81
44751;BME280;30477;48.224;11.470;2023-04-01T17:05:18;94961.31;;;9.28;60.05
44751;BME280;30477;48.224;11.470;2023-04-01T17:10:39;94968.06;;;9.21;59.91
44751;BME280;30477;48.224;11.470;2023-04-01T17:13:33;94969.19;;;9.19;59.87
44751;BME280;30477;48.224;11.470;2023-04-01T17:18:52;94972.09;;;9.16;59.56
44751;BME280;30477;48.224;11.470;2023-04-01T17:24:00;94976.63;;;9.13;58.85
44751;BME280;30477;48.224;11.470;2023-04-01T17:26:50;94975.31;;;9.09;59.07
44751;BME280;30477;48.224;11.470;2023-04-01T17:32:19;94970.94;;;9.02;58.94
44751;BME280;30477;48.224;11.470;2023-04-01T17:35:13;94977.69;;;9.03;58.54
44751;BME280;30477;48.224;11.470;2023-04-01T17:40:48;94983.50;;;9.05;58.82
44751;BME280;30477;48.224;11.470;2023-04-01T17:43:21;94987.25;;;9.10;58.60
44751;BME280;30477;48.224;11.470;2023-04-01T17:45:55;94989.69;;;9.12;58.57
44751;BME280;30477;48.224;11.470;2023-04-01T17:49:01;94997.41;;;9.12;58.53
44751;BME280;30477;48.224;11.470;2023-04-01T17:51:33;94989.69;;;9.12;58.57
44751;BME280;30477;48.224;11.470;2023-04-01T17:54:11;94998.69;;;9.08;58.48
44751;BME280;30477;48.224;11.470;2023-04-01T17:56:45;95005.31;;;9.10;58.39
44751;BME280;30477;48.224;11.470;2023-04-01T18:04:42;95001.44;;;9.14;58.33
44751;BME280;30477;48.224;11.470;2023-04-01T18:09:59;95009.69;;;9.18;58.37
44751;BME280;30477;48.224;11.470;2023-04-01T18:15:26;95018.72;;;9.14;58.22
44751;BME280;30477;48.224;11.470;2023-04-01T18:18:42;95023.88;;;9.14;58.21
44751;BME280;30477;48.224;11.470;2023-04-01T18:24:47;95032.28;;;9.16;58.46
44751;BME280;30477;48.224;11.470;2023-04-01T18:29:27;95023.56;;;9.17;58.38
44751;BME280;30477;48.224;11.470;2023-04-01T18:32:15;95042.59;;;9.16;58.41
44751;BME280;30477;48.224;11.470;2023-04-01T18:35:02;95034.22;;;9.14;58.78
44751;BME280;30477;48.224;11.470;2023-04-01T18:37:46;95040.31;;;9.13;58.82
44751;BME280;30477;48.224;11.470;2023-04-01T18:43:12;95049.19;;;9.10;58.99
44751;BME280;30477;48.224;11.470;2023-04-01T18:48:50;95051.28;;;9.07;59.37
44751;BME280;30477;48.224;11.470;2023-04-01T18:51:21;95052.91;;;9.08;59.44
44751;BME280;30477;48.224;11.470;2023-04-01T18:54:02;95060.28;;;9.03;59.75
44751;BME280;30477;48.224;11.470;2023-04-01T18:56:43;95069.34;;;9.07;59.88
44751;BME280;30477;48.224;11.470;2023-04-01T18:59:23;95066.00;;;9.14;60.06
44751;BME280;30477;48.224;11.470;2023-04-01T19:02:04;95058.34;;;8.97;60.40
44751;BME280;30477;48.224;11.470;2023-04-01T19:09:46;95073.31;;;8.93;60.97
44751;BME280;30477;48.224;11.470;2023-04-01T19:12:22;95074.44;;;8.90;61.11
44751;BME280;30477;48.224;11.470;2023-04-01T19:14:59;95074.78;;;8.96;61.38
44751;BME280;30477;48.224;11.470;2023-04-01T19:20:16;95082.16;;;8.82;61.67
44751;BME280;30477;48.224;11.470;2023-04-01T19:22:54;95081.22;;;8.91;61.66
44751;BME280;30477;48.224;11.470;2023-04-01T19:25:37;95083.94;;;8.90;61.61
44751;BME280;30477;48.224;11.470;2023-04-01T19:30:57;95091.84;;;8.88;61.81
44751;BME280;30477;48.224;11.470;2023-04-01T19:36:23;95097.91;;;8.79;62.06
44751;BME280;30477;48.224;11.470;2023-04-01T19:39:23;95099.84;;;8.77;62.19
44751;BME280;30477;48.224;11.470;2023-04-01T19:42:03;95098.25;;;8.76;62.03
44751;BME280;30477;48.224;11.470;2023-04-01T19:50:16;95103.22;;;8.78;62.17
44751;BME280;30477;48.224;11.470;2023-04-01T19:52:47;95107.91;;;8.74;62.18
44751;BME280;30477;48.224;11.470;2023-04-01T20:00:44;95117.44;;;8.56;62.38
44751;BME280;30477;48.224;11.470;2023-04-01T20:07:10;95133.72;;;8.56;62.65
44751;BME280;30477;48.224;11.470;2023-04-01T20:12:24;95126.13;;;8.54;62.75
44751;BME280;30477;48.224;11.470;2023-04-01T20:14:56;95119.06;;;8.57;62.63
44751;BME280;30477;48.224;11.470;2023-04-01T20:44:26;95151.22;;;8.44;63.28
44751;BME280;30477;48.224;11.470;2023-04-01T20:49:59;95148.41;;;8.56;62.89
44751;BME280;30477;48.224;11.470;2023-04-01T20:52:37;95152.22;;;8.51;62.84
44751;BME280;30477;48.224;11.470;2023-04-01T21:03:29;95164.69;;;8.38;63.11
44751;BME280;30477;48.224;11.470;2023-04-01T21:14:31;95163.88;;;8.20;63.79
44751;BME280;30477;48.224;11.470;2023-04-01T21:19:52;95168.13;;;8.11;63.88
44751;BME280;30477;48.224;11.470;2023-04-01T21:22:36;95175.56;;;8.14;63.92
44751;BME280;30477;48.224;11.470;2023-04-01T21:28:05;95172.53;;;8.19;64.15
44751;BME280;30477;48.224;11.470;2023-04-01T22:06:40;95199.88;;;8.11;64.57
44751;BME280;30477;48.224;11.470;2023-04-01T22:11:50;95206.72;;;8.21;64.44
44751;BME280;30477;48.224;11.470;2023-04-01T22:17:23;95206.72;;;8.21;64.49
44751;BME280;30477;48.224;11.470;2023-04-01T22:27:59;95212.91;;;8.10;64.14
44751;BME280;30477;48.224;11.470;2023-04-01T22:30:33;95211.78;;;8.12;64.42
44751;BME280;30477;48.224;11.470;2023-04-01T22:33:06;95218.94;;;8.19;64.80